createdAt,value
2023-04-06T00:00:34.676Z,28.28
2023-04-06T00:01:24.937Z,30.15
2023-04-06T00:02:15.055Z,34.87
2023-04-06T00:03:05.194Z,30.16
2023-04-06T00:03:55.193Z,30.08
2023-04-06T00:04:45.179Z,32.53
2023-04-06T00:05:35.237Z,35.41
2023-04-06T00:06:25.297Z,29.61
2023-04-06T00:07:15.368Z,32.87
2023-04-06T00:08:05.417Z,33.49
2023-04-06T00:08:55.499Z,32.21
2023-04-06T00:09:45.517Z,33.11
2023-04-06T00:10:35.575Z,32.52
2023-04-06T00:11:25.650Z,34.37
2023-04-06T00:12:15.717Z,32.36
2023-04-06T00:13:05.796Z,34.02
2023-04-06T00:13:55.839Z,29.89
2023-04-06T00:14:45.849Z,32.95
2023-04-06T00:15:35.918Z,31.53
2023-04-06T00:16:27.614Z,30.52
2023-04-06T00:17:16.034Z,30.61
2023-04-06T00:18:06.202Z,30.49
2023-04-06T00:18:56.175Z,31.52
2023-04-06T00:19:46.268Z,31.00
2023-04-06T00:20:36.289Z,29.65
2023-04-06T00:21:26.415Z,26.65
2023-04-06T00:22:16.422Z,25.06
2023-04-06T00:23:06.491Z,25.64
2023-04-06T00:23:56.590Z,27.34
2023-04-06T00:24:46.831Z,24.24
2023-04-06T00:25:36.911Z,28.78
2023-04-06T00:26:26.994Z,26.35
2023-04-06T00:27:17.279Z,26.51
2023-04-06T00:28:07.354Z,27.45
2023-04-06T00:28:57.445Z,25.39
2023-04-06T00:29:47.469Z,25.42
2023-04-06T00:30:37.528Z,25.07
2023-04-06T00:31:27.635Z,27.72
2023-04-06T00:32:17.767Z,27.70
2023-04-06T00:33:07.926Z,25.80
2023-04-06T00:33:57.828Z,26.67
2023-04-06T00:34:47.829Z,30.01
2023-04-06T00:35:37.966Z,30.11
2023-04-06T00:36:28.155Z,29.68
2023-04-06T00:37:18.230Z,27.72
2023-04-06T00:38:08.297Z,27.01
2023-04-06T00:38:58.391Z,26.72
2023-04-06T00:39:48.409Z,26.02
2023-04-06T00:40:38.485Z,26.04
2023-04-06T00:41:28.565Z,26.43
2023-04-06T00:42:18.622Z,25.00
2023-04-06T00:43:08.685Z,33.02
2023-04-06T00:43:58.792Z,32.17
2023-04-06T00:44:48.810Z,30.01
2023-04-06T00:45:38.899Z,28.08
2023-04-06T00:46:29.057Z,32.69
2023-04-06T00:47:18.941Z,31.31
2023-04-06T00:48:09.017Z,31.19
2023-04-06T00:48:59.064Z,37.01
2023-04-06T00:49:49.132Z,30.81
2023-04-06T00:50:39.213Z,27.75
2023-04-06T00:51:29.298Z,32.59
2023-04-06T00:52:19.567Z,31.39
2023-04-06T00:53:09.630Z,31.06
2023-04-06T00:53:59.738Z,28.41
2023-04-06T00:54:49.737Z,28.61
2023-04-06T00:55:39.816Z,28.48
2023-04-06T00:56:29.889Z,30.92
2023-04-06T00:57:19.962Z,30.91
2023-04-06T00:58:09.999Z,27.39
2023-04-06T00:59:00.110Z,27.18
2023-04-06T00:59:50.097Z,26.72
2023-04-06T01:00:40.172Z,27.35
2023-04-06T01:01:30.478Z,28.47
2023-04-06T01:02:20.577Z,27.48
2023-04-06T01:03:10.566Z,30.41
2023-04-06T01:04:00.655Z,32.92
2023-04-06T01:04:50.680Z,29.15
2023-04-06T01:05:40.861Z,32.29
2023-04-06T01:06:30.805Z,30.34
2023-04-06T01:07:20.901Z,32.91
2023-04-06T01:08:10.941Z,31.28
2023-04-06T01:09:01.053Z,29.88
2023-04-06T01:09:51.080Z,32.68
2023-04-06T01:10:41.152Z,31.53
2023-04-06T01:11:31.216Z,33.07
2023-04-06T01:12:21.300Z,29.16
2023-04-06T01:13:11.355Z,28.09
2023-04-06T01:14:01.409Z,33.44
2023-04-06T01:14:51.431Z,31.12
2023-04-06T01:15:41.515Z,31.41
2023-04-06T01:16:31.569Z,32.92
2023-04-06T01:17:21.604Z,33.00
2023-04-06T01:18:11.636Z,31.10
2023-04-06T01:19:01.739Z,29.16
2023-04-06T01:19:51.754Z,29.50
2023-04-06T01:20:41.855Z,28.13
2023-04-06T01:21:31.871Z,28.71
2023-04-06T01:22:21.956Z,28.08
2023-04-06T01:23:12.009Z,30.19
2023-04-06T01:24:02.078Z,25.00
2023-04-06T01:24:52.096Z,29.49
2023-04-06T01:25:42.167Z,29.92
2023-04-06T01:26:32.254Z,27.65
2023-04-06T01:27:22.313Z,28.70
2023-04-06T01:28:12.383Z,30.32
2023-04-06T01:29:02.488Z,31.30
2023-04-06T01:29:52.523Z,26.30
2023-04-06T01:30:42.794Z,30.74
2023-04-06T01:31:32.865Z,26.49
2023-04-06T01:32:22.923Z,27.76
2023-04-06T01:33:12.976Z,31.01
2023-04-06T01:34:03.056Z,31.32
2023-04-06T01:34:53.098Z,32.05
2023-04-06T01:35:43.214Z,28.44
2023-04-06T01:36:33.217Z,28.81
2023-04-06T01:37:23.272Z,32.93
2023-04-06T01:38:13.314Z,25.93
2023-04-06T01:39:03.432Z,29.34
2023-04-06T01:39:53.681Z,30.20
2023-04-06T01:40:43.761Z,32.53
2023-04-06T01:41:33.827Z,29.25
2023-04-06T01:42:23.890Z,29.65
2023-04-06T01:43:13.999Z,35.07
2023-04-06T01:44:04.043Z,31.97
2023-04-06T01:44:54.063Z,27.91
2023-04-06T01:45:44.098Z,31.10
2023-04-06T01:46:34.167Z,31.90
2023-04-06T01:47:24.256Z,33.11
2023-04-06T01:48:14.271Z,31.85
2023-04-06T01:49:04.610Z,26.81
2023-04-06T01:49:54.638Z,27.74
2023-04-06T01:50:44.716Z,28.03
2023-04-06T01:51:34.750Z,31.83
2023-04-06T01:52:24.822Z,27.50
2023-04-06T01:53:14.846Z,29.89
2023-04-06T01:54:04.958Z,27.05
2023-04-06T01:54:54.965Z,30.15
2023-04-06T01:55:45.041Z,25.00
2023-04-06T01:56:35.109Z,27.18
2023-04-06T01:57:25.178Z,28.21
2023-04-06T01:58:15.421Z,28.48
2023-04-06T01:59:05.555Z,27.47
2023-04-06T01:59:55.559Z,29.18
2023-04-06T02:00:45.626Z,26.48
2023-04-06T02:01:35.700Z,28.83
2023-04-06T02:02:26.037Z,29.46
2023-04-06T02:03:15.925Z,26.53
2023-04-06T02:04:05.907Z,28.82
2023-04-06T02:04:55.936Z,26.37
2023-04-06T02:05:46.021Z,32.84
2023-04-06T02:06:36.042Z,30.85
2023-04-06T02:07:26.324Z,31.76
2023-04-06T02:08:16.401Z,26.42
2023-04-06T02:09:06.774Z,27.56
2023-04-06T02:09:56.472Z,28.54
2023-04-06T02:10:46.509Z,27.48
2023-04-06T02:11:36.590Z,32.82
2023-04-06T02:12:26.649Z,29.72
2023-04-06T02:13:16.679Z,28.65
2023-04-06T02:14:06.772Z,27.38
2023-04-06T02:14:56.792Z,35.14
2023-04-06T02:15:46.854Z,32.64
2023-04-06T02:16:37.213Z,31.95
2023-04-06T02:17:27.231Z,29.23
2023-04-06T02:18:17.275Z,28.46
2023-04-06T02:19:07.914Z,25.30
2023-04-06T02:19:57.652Z,29.51
2023-04-06T02:20:47.724Z,27.22
2023-04-06T02:21:38.048Z,27.16
2023-04-06T02:22:28.113Z,29.85
2023-04-06T02:23:18.145Z,28.10
2023-04-06T02:24:08.367Z,30.91
2023-04-06T02:24:58.363Z,28.09
2023-04-06T02:25:48.352Z,26.85
2023-04-06T02:26:38.373Z,26.15
2023-04-06T02:27:28.448Z,34.58
2023-04-06T02:28:18.680Z,26.55
2023-04-06T02:29:09.104Z,29.69
2023-04-06T02:29:58.806Z,27.10
2023-04-06T02:30:48.885Z,26.55
2023-04-06T02:31:38.927Z,25.95
2023-04-06T02:32:28.979Z,27.58
2023-04-06T02:33:19.009Z,29.63
2023-04-06T02:34:09.097Z,28.56
2023-04-06T02:34:59.126Z,35.97
2023-04-06T02:35:49.257Z,36.38
2023-04-06T02:36:39.229Z,33.88
2023-04-06T02:37:29.297Z,38.33
2023-04-06T02:38:19.368Z,33.54
2023-04-06T02:39:09.690Z,39.53
2023-04-06T02:39:59.497Z,35.39
2023-04-06T02:40:49.603Z,34.76
2023-04-06T02:41:39.608Z,29.59
2023-04-06T02:42:29.691Z,28.92
2023-04-06T02:43:19.716Z,29.00
2023-04-06T02:44:09.792Z,28.99
2023-04-06T02:44:59.852Z,28.13
2023-04-06T02:45:49.947Z,29.06
2023-04-06T02:46:39.937Z,30.58
2023-04-06T02:47:30.038Z,28.32
2023-04-06T02:48:20.075Z,25.00
2023-04-06T02:49:10.533Z,25.96
2023-04-06T02:50:00.417Z,28.43
2023-04-06T02:50:50.491Z,30.51
2023-04-06T02:51:40.528Z,27.77
2023-04-06T02:52:30.612Z,28.85
2023-04-06T02:53:20.628Z,29.76
2023-04-06T02:54:10.738Z,28.91
2023-04-06T02:55:00.767Z,28.79
2023-04-06T02:55:50.831Z,27.40
2023-04-06T02:56:40.936Z,25.00
2023-04-06T02:57:30.972Z,26.48
2023-04-06T02:58:21.044Z,26.60
2023-04-06T02:59:11.640Z,26.91
2023-04-06T03:00:01.423Z,27.85
2023-04-06T03:00:51.490Z,27.40
2023-04-06T03:01:41.556Z,26.37
2023-04-06T03:02:31.804Z,29.74
2023-04-06T03:03:21.695Z,27.01
2023-04-06T03:04:11.720Z,28.16
2023-04-06T03:05:01.743Z,25.00
2023-04-06T03:05:51.810Z,26.59
2023-04-06T03:06:41.837Z,28.00
2023-04-06T03:07:31.915Z,26.53
2023-04-06T03:08:21.984Z,26.97
2023-04-06T03:09:12.083Z,28.71
2023-04-06T03:10:02.107Z,27.83
2023-04-06T03:10:52.169Z,33.69
2023-04-06T03:11:42.234Z,38.16
2023-04-06T03:12:32.319Z,34.99
2023-04-06T03:13:22.359Z,35.98
2023-04-06T03:14:12.456Z,37.12
2023-04-06T03:15:02.738Z,31.12
2023-04-06T03:15:52.838Z,32.91
2023-04-06T03:16:42.874Z,33.33
2023-04-06T03:17:32.967Z,31.14
2023-04-06T03:18:22.982Z,31.48
2023-04-06T03:19:13.085Z,35.88
2023-04-06T03:20:03.101Z,32.11
2023-04-06T03:20:53.177Z,31.30
2023-04-06T03:21:43.250Z,32.54
2023-04-06T03:22:33.324Z,30.25
2023-04-06T03:23:23.390Z,29.33
2023-04-06T03:24:13.485Z,30.35
2023-04-06T03:25:03.862Z,29.94
2023-04-06T03:25:53.546Z,26.65
2023-04-06T03:26:43.580Z,31.16
2023-04-06T03:27:33.674Z,31.85
2023-04-06T03:28:23.705Z,28.59
2023-04-06T03:29:13.784Z,27.72
2023-04-06T03:30:03.821Z,25.08
2023-04-06T03:30:53.914Z,27.69
2023-04-06T03:31:43.962Z,29.47
2023-04-06T03:32:34.057Z,32.13
2023-04-06T03:33:24.060Z,28.91
2023-04-06T03:34:14.131Z,32.00
2023-04-06T03:35:04.168Z,25.00
2023-04-06T03:35:54.250Z,28.18
2023-04-06T03:36:44.531Z,27.11
2023-04-06T03:37:34.612Z,26.73
2023-04-06T03:38:24.647Z,27.83
2023-04-06T03:39:15.006Z,31.65
2023-04-06T03:40:05.033Z,30.48
2023-04-06T03:40:55.117Z,28.64
2023-04-06T03:41:45.151Z,26.56
2023-04-06T03:42:35.188Z,29.27
2023-04-06T03:43:25.240Z,32.70
2023-04-06T03:44:15.295Z,29.24
2023-04-06T03:45:05.302Z,27.41
2023-04-06T03:45:55.392Z,29.09
2023-04-06T03:46:45.472Z,28.34
2023-04-06T03:47:35.576Z,28.67
2023-04-06T03:48:25.567Z,30.53
2023-04-06T03:49:15.663Z,28.73
2023-04-06T03:50:05.689Z,30.78
2023-04-06T03:50:55.769Z,29.45
2023-04-06T03:51:45.841Z,30.33
2023-04-06T03:52:35.891Z,32.62
2023-04-06T03:53:25.935Z,31.68
2023-04-06T03:54:16.047Z,29.71
2023-04-06T03:55:06.081Z,36.70
2023-04-06T03:55:56.380Z,35.92
2023-04-06T03:56:46.448Z,35.77
2023-04-06T03:57:36.520Z,32.42
2023-04-06T03:58:26.800Z,34.94
2023-04-06T03:59:16.996Z,36.44
2023-04-06T04:00:06.947Z,30.86
2023-04-06T04:00:57.272Z,34.07
2023-04-06T04:01:47.334Z,34.67
2023-04-06T04:02:37.424Z,36.26
2023-04-06T04:03:27.553Z,32.10
2023-04-06T04:04:17.515Z,39.95
2023-04-06T04:05:07.611Z,42.19
2023-04-06T04:05:57.627Z,42.43
2023-04-06T04:06:47.688Z,42.95
2023-04-06T04:07:37.807Z,44.76
2023-04-06T04:08:27.863Z,40.25
2023-04-06T04:09:17.966Z,39.06
2023-04-06T04:10:07.989Z,36.52
2023-04-06T04:10:58.063Z,40.04
2023-04-06T04:11:48.106Z,40.33
2023-04-06T04:12:38.164Z,38.75
2023-04-06T04:13:28.206Z,38.28
2023-04-06T04:14:18.257Z,29.53
2023-04-06T04:15:08.290Z,27.99
2023-04-06T04:15:58.518Z,30.37
2023-04-06T04:16:48.437Z,33.32
2023-04-06T04:17:38.490Z,31.23
2023-04-06T04:18:28.475Z,40.72
2023-04-06T04:19:18.539Z,35.62
2023-04-06T04:20:08.560Z,39.43
2023-04-06T04:20:58.681Z,42.21
2023-04-06T04:21:48.706Z,41.91
2023-04-06T04:22:38.787Z,45.25
2023-04-06T04:23:28.814Z,48.12
2023-04-06T04:24:18.890Z,51.67
2023-04-06T04:25:08.943Z,48.02
2023-04-06T04:25:59.011Z,50.74
2023-04-06T04:26:49.024Z,49.87
2023-04-06T04:27:39.099Z,48.24
2023-04-06T04:28:29.147Z,54.45
2023-04-06T04:29:19.254Z,55.65
2023-04-06T04:30:09.283Z,54.68
2023-04-06T04:30:59.363Z,60.30
2023-04-06T04:31:49.497Z,54.31
2023-04-06T04:32:39.527Z,64.97
2023-04-06T04:33:29.545Z,65.06
2023-04-06T04:34:19.629Z,63.65
2023-04-06T04:35:09.642Z,61.70
2023-04-06T04:35:59.744Z,58.22
2023-04-06T04:36:50.043Z,50.34
2023-04-06T04:37:40.121Z,54.60
2023-04-06T04:38:30.139Z,52.68
2023-04-06T04:39:20.492Z,53.62
2023-04-06T04:40:10.528Z,53.12
2023-04-06T04:41:00.595Z,51.37
2023-04-06T04:41:50.660Z,54.83
2023-04-06T04:42:40.687Z,48.94
2023-04-06T04:43:32.767Z,48.79
2023-04-06T04:44:20.864Z,48.21
2023-04-06T04:45:10.894Z,45.68
2023-04-06T04:46:01.012Z,47.90
2023-04-06T04:46:51.039Z,46.20
2023-04-06T04:47:41.201Z,43.85
2023-04-06T04:48:31.358Z,42.69
2023-04-06T04:49:21.422Z,42.64
2023-04-06T04:50:11.452Z,45.91
2023-04-06T04:51:01.528Z,42.82
2023-04-06T04:51:51.606Z,43.09
2023-04-06T04:52:41.639Z,42.50
2023-04-06T04:53:31.676Z,40.70
2023-04-06T04:54:21.766Z,44.20
2023-04-06T04:55:11.797Z,41.13
2023-04-06T04:56:01.874Z,42.41
2023-04-06T04:56:51.902Z,42.17
2023-04-06T04:57:41.974Z,41.01
2023-04-06T04:58:32.009Z,39.68
2023-04-06T04:59:22.151Z,40.52
2023-04-06T05:00:12.167Z,43.16
2023-04-06T05:01:02.241Z,38.39
2023-04-06T05:01:55.403Z,37.94
2023-04-06T05:02:42.407Z,37.74
2023-04-06T05:03:32.576Z,37.57
2023-04-06T05:04:22.549Z,36.07
2023-04-06T05:05:12.578Z,37.99
2023-04-06T05:06:02.670Z,38.32
2023-04-06T05:06:52.689Z,39.84
2023-04-06T05:07:42.754Z,37.88
2023-04-06T05:08:32.809Z,44.19
2023-04-06T05:09:22.908Z,41.79
2023-04-06T05:10:12.924Z,41.08
2023-04-06T05:11:03.002Z,44.44
2023-04-06T05:11:53.026Z,44.77
2023-04-06T05:12:43.359Z,43.22
2023-04-06T05:13:33.421Z,46.71
2023-04-06T05:14:23.513Z,46.27
2023-04-06T05:15:13.794Z,41.89
2023-04-06T05:16:03.956Z,44.75
2023-04-06T05:16:53.946Z,45.77
2023-04-06T05:17:44.018Z,43.57
2023-04-06T05:18:34.026Z,46.83
2023-04-06T05:19:24.083Z,49.76
2023-04-06T05:20:14.140Z,49.45
2023-04-06T05:21:04.162Z,49.01
2023-04-06T05:21:54.229Z,49.06
2023-04-06T05:22:44.300Z,53.44
2023-04-06T05:23:34.344Z,52.19
2023-04-06T05:24:24.687Z,54.85
2023-04-06T05:25:14.704Z,46.50
2023-04-06T05:26:04.781Z,50.70
2023-04-06T05:26:55.099Z,54.52
2023-04-06T05:27:45.174Z,51.43
2023-04-06T05:28:35.241Z,51.87
2023-04-06T05:29:25.341Z,53.29
2023-04-06T05:30:15.362Z,50.85
2023-04-06T05:31:05.525Z,49.69
2023-04-06T05:31:55.492Z,51.06
2023-04-06T05:32:45.626Z,49.63
2023-04-06T05:33:35.617Z,50.72
2023-04-06T05:34:25.729Z,49.84
2023-04-06T05:35:15.723Z,51.66
2023-04-06T05:36:05.908Z,56.02
2023-04-06T05:36:55.886Z,60.32
2023-04-06T05:37:45.911Z,61.01
2023-04-06T05:38:35.985Z,57.35
2023-04-06T05:39:26.060Z,56.01
2023-04-06T05:40:16.136Z,50.94
2023-04-06T05:41:06.214Z,55.19
2023-04-06T05:41:56.254Z,51.29
2023-04-06T05:42:46.281Z,50.78
2023-04-06T05:43:36.316Z,49.76
2023-04-06T05:44:26.371Z,51.76
2023-04-06T05:45:16.397Z,51.69
2023-04-06T05:46:06.517Z,50.19
2023-04-06T05:46:56.702Z,47.16
2023-04-06T05:47:46.691Z,46.77
2023-04-06T05:48:36.671Z,50.65
2023-04-06T05:49:27.044Z,48.53
2023-04-06T05:50:17.063Z,51.50
2023-04-06T05:51:07.112Z,49.88
2023-04-06T05:51:57.125Z,55.34
2023-04-06T05:52:47.184Z,47.74
2023-04-06T05:53:37.255Z,47.74
2023-04-06T05:54:27.346Z,50.19
2023-04-06T05:55:17.371Z,50.87
2023-04-06T05:56:07.433Z,51.47
2023-04-06T05:56:57.503Z,45.78
2023-04-06T05:57:47.585Z,46.28
2023-04-06T05:58:37.835Z,41.93
2023-04-06T05:59:27.992Z,42.80
2023-04-06T06:00:17.944Z,47.37
2023-04-06T06:01:08.278Z,41.62
2023-04-06T06:01:58.390Z,46.39
2023-04-06T06:02:48.396Z,43.19
2023-04-06T06:03:38.412Z,47.23
2023-04-06T06:04:28.508Z,45.40
2023-04-06T06:05:18.532Z,44.24
2023-04-06T06:06:08.509Z,40.81
2023-04-06T06:06:58.540Z,41.57
2023-04-06T06:07:48.656Z,43.79
2023-04-06T06:08:38.687Z,41.35
2023-04-06T06:09:28.786Z,39.74
2023-04-06T06:10:18.818Z,41.38
2023-04-06T06:11:08.898Z,36.51
2023-04-06T06:11:58.935Z,39.97
2023-04-06T06:12:49.015Z,41.59
2023-04-06T06:13:39.052Z,37.88
2023-04-06T06:14:29.139Z,36.73
2023-04-06T06:15:19.164Z,34.81
2023-04-06T06:16:09.215Z,32.32
2023-04-06T06:16:59.258Z,36.81
2023-04-06T06:17:49.354Z,34.55
2023-04-06T06:18:39.338Z,30.29
2023-04-06T06:19:29.430Z,34.53
2023-04-06T06:20:19.474Z,31.96
2023-04-06T06:21:09.608Z,26.27
2023-04-06T06:21:59.607Z,23.64
2023-04-06T06:22:49.683Z,30.74
2023-04-06T06:23:39.708Z,28.58
2023-04-06T06:24:31.610Z,31.32
2023-04-06T06:25:20.014Z,31.20
2023-04-06T06:26:09.858Z,30.54
2023-04-06T06:26:59.884Z,35.81
2023-04-06T06:27:49.966Z,34.41
2023-04-06T06:28:40.059Z,36.90
2023-04-06T06:29:30.267Z,43.89
2023-04-06T06:30:22.888Z,40.32
2023-04-06T06:31:10.378Z,40.37
2023-04-06T06:32:00.458Z,40.68
2023-04-06T06:32:50.460Z,40.63
2023-04-06T06:33:40.497Z,41.46
2023-04-06T06:34:30.586Z,41.29
2023-04-06T06:35:20.629Z,39.89
2023-04-06T06:36:10.657Z,32.32
2023-04-06T06:37:00.759Z,34.43
2023-04-06T06:37:50.785Z,35.27
2023-04-06T06:38:40.804Z,40.41
2023-04-06T06:39:30.894Z,38.78
2023-04-06T06:40:20.914Z,40.65
2023-04-06T06:41:11.009Z,40.70
2023-04-06T06:42:01.076Z,42.73
2023-04-06T06:42:51.154Z,41.43
2023-04-06T06:43:41.183Z,37.54
2023-04-06T06:44:31.434Z,37.01
2023-04-06T06:45:21.342Z,37.70
2023-04-06T06:46:11.417Z,35.16
2023-04-06T06:47:01.439Z,41.33
2023-04-06T06:47:54.364Z,41.59
2023-04-06T06:48:41.541Z,39.76
2023-04-06T06:49:31.637Z,38.62
2023-04-06T06:50:21.682Z,36.48
2023-04-06T06:51:11.747Z,36.27
2023-04-06T06:52:01.770Z,37.67
2023-04-06T06:52:51.888Z,35.87
2023-04-06T06:53:41.880Z,35.70
2023-04-06T06:54:31.981Z,35.11
2023-04-06T06:55:21.998Z,36.32
2023-04-06T06:56:12.337Z,34.74
2023-04-06T06:57:02.374Z,41.99
2023-04-06T06:57:52.450Z,35.57
2023-04-06T06:58:42.484Z,40.62
2023-04-06T06:59:32.692Z,43.21
2023-04-06T07:00:22.600Z,37.10
2023-04-06T07:01:12.745Z,33.42
2023-04-06T07:02:02.744Z,35.72
2023-04-06T07:02:52.851Z,37.84
2023-04-06T07:03:42.912Z,34.65
2023-04-06T07:04:33.088Z,34.97
2023-04-06T07:06:13.325Z,32.24
2023-04-06T07:07:03.381Z,29.67
2023-04-06T07:07:53.468Z,29.84
2023-04-06T07:08:43.529Z,29.76
2023-04-06T07:09:33.588Z,27.20
2023-04-06T07:10:23.631Z,24.59
2023-04-06T07:11:13.697Z,28.36
2023-04-06T07:12:03.947Z,28.28
2023-04-06T07:12:54.037Z,32.00
2023-04-06T07:13:44.050Z,26.94
2023-04-06T07:14:34.177Z,26.37
2023-04-06T07:15:24.187Z,32.86
2023-04-06T07:16:14.290Z,27.90
2023-04-06T07:17:04.353Z,30.59
2023-04-06T07:17:54.453Z,30.81
2023-04-06T07:18:44.436Z,25.74
2023-04-06T07:19:34.549Z,28.84
2023-04-06T07:20:24.604Z,30.93
2023-04-06T07:21:14.630Z,29.91
2023-04-06T07:22:04.656Z,27.29
2023-04-06T07:22:54.741Z,29.11
2023-04-06T07:23:44.777Z,34.80
2023-04-06T07:24:34.846Z,30.34
2023-04-06T07:25:25.950Z,33.60
2023-04-06T07:26:14.916Z,27.97
2023-04-06T07:27:04.987Z,31.65
2023-04-06T07:27:55.066Z,28.65
2023-04-06T07:28:45.102Z,29.20
2023-04-06T07:29:35.195Z,32.03
2023-04-06T07:30:25.218Z,33.20
2023-04-06T07:31:15.302Z,32.15
2023-04-06T07:32:05.423Z,26.80
2023-04-06T07:32:55.561Z,28.76
2023-04-06T07:33:45.508Z,28.96
2023-04-06T07:34:35.591Z,29.66
2023-04-06T07:35:25.665Z,30.71
2023-04-06T07:36:15.764Z,28.56
2023-04-06T07:37:05.730Z,34.27
2023-04-06T07:37:55.775Z,34.89
2023-04-06T07:38:45.845Z,33.23
2023-04-06T07:39:35.952Z,30.45
2023-04-06T07:40:26.016Z,29.19
2023-04-06T07:41:16.037Z,31.28
2023-04-06T07:42:06.076Z,28.81
2023-04-06T07:42:57.550Z,27.38
2023-04-06T07:43:46.194Z,25.90
2023-04-06T07:44:36.296Z,28.67
2023-04-06T07:45:26.368Z,29.27
2023-04-06T07:46:16.479Z,27.22
2023-04-06T07:47:06.450Z,28.01
2023-04-06T07:47:56.670Z,27.71
2023-04-06T07:48:46.553Z,33.02
2023-04-06T07:49:36.657Z,37.97
2023-04-06T07:50:26.670Z,40.89
2023-04-06T07:51:16.749Z,29.95
2023-04-06T07:52:07.036Z,32.48
2023-04-06T07:52:57.108Z,33.31
2023-04-06T07:53:47.141Z,33.12
2023-04-06T07:54:37.240Z,28.65
2023-04-06T07:55:27.268Z,27.54
2023-04-06T07:56:17.374Z,25.26
2023-04-06T07:57:07.371Z,31.19
2023-04-06T07:57:57.451Z,36.95
2023-04-06T07:58:47.515Z,34.11
2023-04-06T07:59:37.703Z,36.21
2023-04-06T08:00:27.637Z,38.71
2023-04-06T08:01:17.669Z,37.76
2023-04-06T08:02:07.833Z,39.13
2023-04-06T08:02:57.886Z,32.18
2023-04-06T08:03:48.223Z,30.69
2023-04-06T08:04:37.945Z,30.73
2023-04-06T08:05:28.124Z,40.39
2023-04-06T08:06:18.207Z,48.59
2023-04-06T08:07:08.233Z,50.66
2023-04-06T08:07:58.320Z,48.18
2023-04-06T08:08:48.355Z,41.55
2023-04-06T08:09:38.451Z,40.44
2023-04-06T08:10:28.476Z,36.76
2023-04-06T08:11:18.562Z,32.25
2023-04-06T08:12:08.627Z,30.57
2023-04-06T08:12:58.679Z,29.56
2023-04-06T08:13:48.714Z,26.85
2023-04-06T08:14:39.050Z,33.36
2023-04-06T08:15:29.096Z,36.74
2023-04-06T08:16:19.226Z,36.10
2023-04-06T08:17:09.487Z,33.36
2023-04-06T08:17:59.580Z,25.86
2023-04-06T08:18:49.608Z,26.35
2023-04-06T08:19:39.912Z,31.07
2023-04-06T08:20:29.930Z,40.42
2023-04-06T08:21:20.016Z,39.61
2023-04-06T08:22:10.035Z,40.58
2023-04-06T08:23:00.240Z,49.27
2023-04-06T08:23:50.132Z,42.41
2023-04-06T08:24:40.229Z,35.19
2023-04-06T08:25:30.260Z,29.52
2023-04-06T08:26:20.337Z,23.99
2023-04-06T08:27:10.385Z,25.47
2023-04-06T08:28:00.430Z,22.19
2023-04-06T08:28:50.489Z,28.61
2023-04-06T08:29:40.581Z,33.34
2023-04-06T08:30:30.607Z,37.34
2023-04-06T08:31:20.737Z,36.49
2023-04-06T08:32:10.712Z,35.73
2023-04-06T08:33:00.833Z,39.17
2023-04-06T08:33:50.853Z,42.58
2023-04-06T08:34:40.936Z,32.56
2023-04-06T08:35:30.995Z,29.99
2023-04-06T08:36:21.041Z,30.90
2023-04-06T08:37:11.150Z,29.74
2023-04-06T08:38:01.221Z,32.33
2023-04-06T08:38:51.349Z,41.45
2023-04-06T08:39:41.363Z,44.61
2023-04-06T08:40:31.398Z,41.94
2023-04-06T08:41:21.472Z,32.66
2023-04-06T08:42:11.509Z,26.78
2023-04-06T08:43:01.609Z,25.66
2023-04-06T08:43:51.700Z,28.84
2023-04-06T08:44:41.711Z,29.91
2023-04-06T08:45:31.743Z,27.22
2023-04-06T08:46:22.060Z,28.59
2023-04-06T08:47:12.059Z,30.11
2023-04-06T08:48:02.174Z,35.50
2023-04-06T08:48:52.165Z,40.15
2023-04-06T08:49:42.251Z,47.56
2023-04-06T08:50:32.305Z,53.40
2023-04-06T08:51:22.328Z,48.07
2023-04-06T08:52:12.353Z,41.80
2023-04-06T08:53:02.423Z,40.41
2023-04-06T08:53:52.449Z,35.14
2023-04-06T08:54:42.546Z,37.78
2023-04-06T08:55:32.577Z,38.39
2023-04-06T08:56:22.640Z,36.32
2023-04-06T08:57:12.713Z,43.72
2023-04-06T08:58:02.793Z,36.31
2023-04-06T08:58:54.570Z,31.96
2023-04-06T08:59:42.977Z,32.14
2023-04-06T09:00:32.905Z,32.92
2023-04-06T09:01:23.020Z,32.79
2023-04-06T09:02:13.108Z,35.19
2023-04-06T09:03:03.177Z,34.66
2023-04-06T09:03:53.261Z,37.72
2023-04-06T09:04:43.326Z,38.74
2023-04-06T09:05:33.504Z,39.70
2023-04-06T09:06:23.557Z,30.53
2023-04-06T09:08:37.416Z,25.00
2023-04-06T09:09:27.428Z,25.00
2023-04-06T09:10:17.632Z,25.00
2023-04-06T09:11:07.712Z,25.00
2023-04-06T09:11:57.780Z,25.00
2023-04-06T09:12:48.037Z,25.00
2023-04-06T09:13:38.119Z,27.69
2023-04-06T09:14:28.164Z,25.00
2023-04-06T09:15:18.222Z,25.38
2023-04-06T09:16:08.298Z,27.09
2023-04-06T09:16:58.309Z,26.16
2023-04-06T09:17:48.457Z,33.07
2023-04-06T09:18:38.444Z,27.41
2023-04-06T09:19:28.470Z,23.24
2023-04-06T09:20:18.569Z,29.82
2023-04-06T09:21:08.578Z,39.10
2023-04-06T09:21:58.902Z,39.89
2023-04-06T09:22:48.974Z,51.08
2023-04-06T09:23:39.078Z,48.98
2023-04-06T09:24:29.365Z,47.25
2023-04-06T09:25:19.446Z,43.10
2023-04-06T09:26:09.471Z,47.37
2023-04-06T09:26:59.543Z,45.10
2023-04-06T09:27:49.663Z,45.21
2023-04-06T09:28:39.631Z,47.83
2023-04-06T09:29:29.655Z,39.30
2023-04-06T09:30:19.815Z,43.65
2023-04-06T09:31:09.795Z,35.16
2023-04-06T09:31:59.921Z,35.53
2023-04-06T09:32:49.930Z,35.40
2023-04-06T09:33:39.970Z,33.85
2023-04-06T09:34:29.994Z,39.70
2023-04-06T09:35:20.134Z,35.24
2023-04-06T09:36:10.133Z,30.03
2023-04-06T09:37:00.213Z,29.75
2023-04-06T09:37:50.240Z,29.87
2023-04-06T09:38:40.320Z,32.05
2023-04-06T09:39:30.341Z,26.15
2023-04-06T09:40:20.638Z,30.33
2023-04-06T09:41:10.662Z,35.48
2023-04-06T09:42:00.735Z,31.49
2023-04-06T09:42:50.763Z,39.03
2023-04-06T09:43:40.846Z,40.69
2023-04-06T09:44:30.904Z,41.37
2023-04-06T09:45:21.013Z,38.47
2023-04-06T09:46:11.038Z,42.73
2023-04-06T09:47:01.611Z,39.84
2023-04-06T09:47:51.477Z,29.45
2023-04-06T09:48:41.237Z,33.19
2023-04-06T09:49:31.493Z,28.89
2023-04-06T09:50:21.551Z,27.75
2023-04-06T09:51:11.587Z,30.30
2023-04-06T09:52:01.685Z,36.32
2023-04-06T09:52:51.679Z,32.46
2023-04-06T09:53:41.761Z,26.90
2023-04-06T09:54:31.797Z,31.43
2023-04-06T09:55:21.855Z,24.91
2023-04-06T09:56:11.950Z,29.62
2023-04-06T09:57:01.956Z,31.74
2023-04-06T09:57:52.076Z,37.12
2023-04-06T09:58:42.127Z,39.76
2023-04-06T09:59:32.147Z,35.61
2023-04-06T10:00:22.190Z,31.53
2023-04-06T10:01:12.333Z,33.96
2023-04-06T10:02:02.329Z,46.51
2023-04-06T10:02:52.412Z,41.56
2023-04-06T10:03:42.450Z,45.16
2023-04-06T10:04:32.436Z,41.46
2023-04-06T10:05:22.529Z,43.14
2023-04-06T10:06:12.556Z,46.09
2023-04-06T10:07:02.587Z,42.39
2023-04-06T10:08:00.224Z,30.80
2023-04-06T10:08:43.710Z,30.89
2023-04-06T10:09:32.788Z,31.60
2023-04-06T10:10:22.872Z,31.95
2023-04-06T10:11:12.901Z,34.58
2023-04-06T10:12:02.972Z,42.61
2023-04-06T10:12:53.016Z,36.59
2023-04-06T10:13:43.042Z,44.48
2023-04-06T10:14:33.203Z,46.94
2023-04-06T10:15:23.301Z,46.45
2023-04-06T10:16:13.436Z,43.17
2023-04-06T10:17:03.408Z,44.88
2023-04-06T10:17:53.476Z,51.53
2023-04-06T10:18:43.484Z,45.93
2023-04-06T10:19:33.557Z,47.64
2023-04-06T10:20:23.604Z,50.60
2023-04-06T10:21:13.630Z,48.25
2023-04-06T10:22:03.706Z,45.04
2023-04-06T10:22:53.725Z,49.52
2023-04-06T10:23:43.801Z,50.20
2023-04-06T10:24:33.836Z,54.12
2023-04-06T10:25:23.942Z,51.94
2023-04-06T10:26:13.962Z,56.22
2023-04-06T10:27:04.039Z,57.40
2023-04-06T10:27:54.071Z,54.73
2023-04-06T10:28:44.121Z,60.69
2023-04-06T10:29:34.186Z,54.75
2023-04-06T10:30:24.491Z,58.64
2023-04-06T10:31:14.598Z,57.76
2023-04-06T10:32:04.664Z,57.88
2023-04-06T10:32:54.638Z,63.64
2023-04-06T10:33:44.754Z,63.33
2023-04-06T10:34:34.743Z,63.86
2023-04-06T10:35:24.840Z,55.22
2023-04-06T10:36:14.888Z,57.15
2023-04-06T10:37:04.937Z,55.75
2023-04-06T10:37:54.964Z,58.91
2023-04-06T10:38:45.041Z,56.00
2023-04-06T10:39:35.066Z,54.01
2023-04-06T10:40:25.139Z,59.65
2023-04-06T10:41:15.186Z,55.00
2023-04-06T10:42:05.224Z,64.86
2023-04-06T10:42:55.297Z,61.87
2023-04-06T10:43:47.464Z,59.47
2023-04-06T10:44:35.416Z,64.20
2023-04-06T10:45:25.534Z,60.29
2023-04-06T10:46:15.561Z,58.52
2023-04-06T10:47:05.586Z,58.94